Time;durP1;ratioP1;P1;durP2;ratioP2;P2;SDS_P1;SDS_P2;PMS_P1;PMS_P2;Temp;Humidity;BMP_temperature;BMP_pressure;BME280_temperature;BME280_humidity;BME280_pressure;Samples;Min_cycle;Max_cycle;Signal;HPM_P1;HPM_P2
2022/07/30 00:01:14;;;;;;;4.25;3.78;;;21.00;1.00;;;;;;5095367;28;20104;-79
2022/07/30 00:03:40;;;;;;;5.18;4.15;;;20.80;1.00;;;;;;5091566;28;20032;-79
2022/07/30 00:06:06;;;;;;;5.53;3.90;;;20.90;1.00;;;;;;5092722;28;20028;-79
2022/07/30 00:08:31;;;;;;;5.60;4.00;;;20.80;1.00;;;;;;5093156;28;20066;-79
2022/07/30 00:10:57;;;;;;;5.93;3.75;;;20.80;1.00;;;;;;5091778;28;20103;-79
2022/07/30 00:13:22;;;;;;;8.00;4.03;;;20.70;1.00;;;;;;5094859;28;20028;-79
2022/07/30 00:15:48;;;;;;;5.93;3.80;;;20.60;1.00;;;;;;5093759;28;20039;-79
2022/07/30 00:18:14;;;;;;;6.18;4.00;;;20.50;1.00;;;;;;5074562;28;20169;-79
2022/07/30 00:20:39;;;;;;;5.15;4.00;;;20.40;1.00;;;;;;5092580;28;20064;-79
2022/07/30 00:23:06;;;;;;;5.38;3.72;;;20.40;1.00;;;;;;5093106;28;20101;-79
2022/07/30 00:25:31;;;;;;;4.55;4.13;;;20.30;1.00;;;;;;5093753;28;20024;-79
2022/07/30 00:27:57;;;;;;;4.22;3.83;;;20.30;1.00;;;;;;5094376;28;20024;-79
2022/07/30 00:30:23;;;;;;;5.82;4.05;;;20.30;1.00;;;;;;5092534;28;20584;-79
2022/07/30 00:32:49;;;;;;;4.55;4.07;;;20.30;1.00;;;;;;5092374;28;20058;-79
2022/07/30 00:35:15;;;;;;;4.78;3.90;;;20.30;1.00;;;;;;5092550;28;20043;-79
2022/07/30 00:37:40;;;;;;;4.57;3.72;;;20.30;1.00;;;;;;5092839;28;20044;-79
2022/07/30 00:40:08;;;;;;;5.60;3.80;;;20.30;1.00;;;;;;5094665;28;20099;-79
2022/07/30 00:42:41;;;;;;;4.60;3.70;;;20.20;1.00;;;;;;5091104;28;20059;-79
2022/07/30 00:45:08;;;;;;;4.00;3.70;;;20.30;1.00;;;;;;5092677;28;20027;-78
2022/07/30 00:47:34;;;;;;;4.85;3.92;;;20.20;1.00;;;;;;5073850;28;20032;-79
2022/07/30 00:50:03;;;;;;;6.13;4.38;;;20.10;1.00;;;;;;5091210;28;20439;-79
2022/07/30 00:52:29;;;;;;;4.80;4.30;;;20.00;1.00;;;;;;5093420;28;20103;-79
2022/07/30 00:54:55;;;;;;;4.57;4.03;;;20.00;1.00;;;;;;5093548;28;20409;-79
2022/07/30 00:57:21;;;;;;;5.18;4.00;;;19.90;1.00;;;;;;5092547;28;20035;-79
2022/07/30 00:59:46;;;;;;;4.75;4.05;;;20.00;1.00;;;;;;5092227;28;20090;-79
2022/07/30 01:02:12;;;;;;;4.55;3.90;;;19.90;1.00;;;;;;5091650;28;20071;-79
2022/07/30 01:04:37;;;;;;;11.18;4.50;;;19.90;1.00;;;;;;5092001;28;20035;-79
2022/07/30 01:07:03;;;;;;;4.25;3.92;;;19.70;1.00;;;;;;5094120;28;20484;-79
2022/07/30 01:09:29;;;;;;;4.63;3.80;;;19.50;1.00;;;;;;5091904;28;20032;-78
2022/07/30 01:11:55;;;;;;;4.63;3.75;;;19.50;1.00;;;;;;5092147;28;20020;-79
2022/07/30 01:14:21;;;;;;;7.47;4.38;;;19.50;1.00;;;;;;5092101;28;20062;-79
2022/07/30 01:16:47;;;;;;;4.65;4.20;;;19.50;1.00;;;;;;5091423;28;20045;-79
2022/07/30 01:22:34;;;;;;;5.38;4.30;;;19.60;1.00;;;;;;5092299;28;20039;-79
2022/07/30 01:25:23;;;;;;;5.18;4.30;;;19.70;1.00;;;;;;5093352;28;20028;-79
2022/07/30 01:27:58;;;;;;;4.72;4.20;;;19.70;1.00;;;;;;5092161;28;20032;-79
2022/07/30 01:30:27;;;;;;;7.57;4.65;;;19.70;1.00;;;;;;5091223;28;20051;-79
2022/07/30 01:32:55;;;;;;;4.95;4.40;;;19.50;1.00;;;;;;5072891;28;20049;-79
2022/07/30 01:35:23;;;;;;;5.45;4.32;;;19.50;1.00;;;;;;5091797;28;20447;-78
2022/07/30 01:37:51;;;;;;;5.15;4.65;;;19.50;1.00;;;;;;5091620;28;20024;-78
2022/07/30 01:40:18;;;;;;;7.20;4.45;;;19.30;1.00;;;;;;5089110;28;20012;-79
2022/07/30 01:42:47;;;;;;;5.13;4.30;;;19.40;1.00;;;;;;5091652;28;20427;-79
2022/07/30 01:45:14;;;;;;;6.28;4.35;;;19.40;1.00;;;;;;5091063;28;20473;-79
2022/07/30 01:47:42;;;;;;;5.65;4.53;;;19.40;1.00;;;;;;5090700;28;20123;-78
2022/07/30 01:50:14;;;;;;;5.03;4.53;;;19.20;1.00;;;;;;5091091;28;20028;-78
2022/07/30 01:52:46;;;;;;;5.85;4.30;;;19.20;1.00;;;;;;5091401;28;20017;-79
2022/07/30 01:55:15;;;;;;;5.05;4.50;;;19.30;1.00;;;;;;5093116;28;20121;-79
2022/07/30 01:57:44;;;;;;;6.63;4.50;;;19.10;1.00;;;;;;5090195;28;20024;-79
2022/07/30 02:00:10;;;;;;;5.00;4.32;;;19.10;1.00;;;;;;5089057;28;20024;-78
2022/07/30 02:02:39;;;;;;;6.85;4.50;;;18.80;1.00;;;;;;5090888;28;20036;-79
2022/07/30 02:05:06;;;;;;;5.97;4.45;;;18.80;1.00;;;;;;5090819;28;20400;-79
2022/07/30 02:07:48;;;;;;;6.53;4.22;;;18.90;1.00;;;;;;5091661;28;20020;-79
2022/07/30 02:10:27;;;;;;;5.30;4.68;;;18.80;1.00;;;;;;5092548;28;20583;-78
2022/07/30 02:12:55;;;;;;;4.72;4.32;;;18.80;1.00;;;;;;5090352;28;20389;-79
2022/07/30 02:15:48;;;;;;;5.68;4.50;;;19.00;1.00;;;;;;5090171;28;20040;-80
2022/07/30 02:18:31;;;;;;;5.78;4.97;;;18.80;1.00;;;;;;5090308;28;20032;-78
2022/07/30 02:21:07;;;;;;;6.75;4.63;;;19.00;1.00;;;;;;5090498;28;20035;-79
2022/07/30 02:23:44;;;;;;;5.53;4.25;;;18.90;1.00;;;;;;5090517;28;20031;-79
2022/07/30 02:26:17;;;;;;;5.78;4.63;;;18.90;1.00;;;;;;5090710;28;20054;-79
2022/07/30 02:28:46;;;;;;;5.97;4.28;;;18.80;1.00;;;;;;5090421;28;20028;-79
2022/07/30 02:31:14;;;;;;;5.20;4.65;;;18.80;1.00;;;;;;5092272;28;20476;-79
2022/07/30 02:33:43;;;;;;;4.72;4.05;;;18.80;1.00;;;;;;5090223;28;20048;-79
2022/07/30 02:36:10;;;;;;;6.13;4.20;;;18.90;1.00;;;;;;5090610;28;20016;-79
2022/07/30 02:38:40;;;;;;;5.22;4.82;;;18.90;1.00;;;;;;5090171;28;20100;-79
2022/07/30 02:41:07;;;;;;;5.38;4.88;;;18.80;1.00;;;;;;5090265;28;20544;-79
2022/07/30 02:43:34;;;;;;;7.05;4.53;;;18.80;1.00;;;;;;5090523;28;20055;-79
2022/07/30 02:46:01;;;;;;;4.75;4.30;;;18.70;1.00;;;;;;5092475;28;20020;-79
2022/07/30 02:48:28;;;;;;;5.10;4.22;;;18.70;1.00;;;;;;5088805;28;20043;-79
2022/07/30 02:50:56;;;;;;;5.47;4.53;;;18.60;1.00;;;;;;5090152;28;20027;-79
2022/07/30 02:53:24;;;;;;;4.88;4.13;;;18.60;1.00;;;;;;5090040;28;20492;-79
2022/07/30 02:55:54;;;;;;;4.65;4.22;;;18.70;1.00;;;;;;5074248;28;20020;-79
2022/07/30 02:58:22;;;;;;;7.80;4.25;;;18.60;1.00;;;;;;5087701;28;20040;-79
2022/07/30 03:00:51;;;;;;;5.60;4.57;;;18.70;1.00;;;;;;5090286;28;20028;-78
2022/07/30 03:03:17;;;;;;;7.43;4.30;;;18.50;1.00;;;;;;5089778;28;20558;-79
2022/07/30 03:05:46;;;;;;;5.65;4.50;;;18.30;1.00;;;;;;5089937;28;20079;-79
2022/07/30 03:08:14;;;;;;;5.93;4.60;;;18.20;1.00;;;;;;5090250;28;20079;-78
2022/07/30 03:10:43;;;;;;;6.35;4.40;;;18.10;1.00;;;;;;5089672;28;20060;-79
2022/07/30 03:13:11;;;;;;;5.10;4.43;;;18.00;1.00;;;;;;5091729;28;20119;-79
2022/07/30 03:15:44;;;;;;;8.27;4.53;;;18.10;1.00;;;;;;5089672;28;20020;-79
2022/07/30 03:18:13;;;;;;;5.07;4.43;;;18.10;1.00;;;;;;5088229;28;20028;-79
2022/07/30 03:20:39;;;;;;;5.72;4.95;;;17.90;1.00;;;;;;5089741;28;20506;-79
2022/07/30 03:23:06;;;;;;;5.32;4.68;;;17.90;1.00;;;;;;5090041;28;20059;-79
2022/07/30 03:25:33;;;;;;;5.47;4.28;;;18.20;1.00;;;;;;5090590;28;20074;-79
2022/07/30 03:28:02;;;;;;;6.57;4.38;;;18.10;1.00;;;;;;5091084;28;20020;-78
2022/07/30 03:30:28;;;;;;;5.78;4.05;;;17.90;1.00;;;;;;5089607;28;20515;-79
2022/07/30 03:32:55;;;;;;;5.07;4.60;;;18.00;1.00;;;;;;5089878;28;20033;-79
2022/07/30 03:35:23;;;;;;;5.30;4.45;;;18.10;1.00;;;;;;5089607;28;20082;-79
2022/07/30 03:37:50;;;;;;;4.93;4.43;;;18.10;1.00;;;;;;5073904;28;20548;-79
2022/07/30 03:40:17;;;;;;;5.03;4.53;;;18.20;1.00;;;;;;5087135;28;20032;-78
2022/07/30 03:42:44;;;;;;;6.18;4.82;;;18.20;1.00;;;;;;5089576;28;20561;-78
2022/07/30 03:45:14;;;;;;;5.50;4.50;;;18.20;1.00;;;;;;5089496;28;20031;-78
2022/07/30 03:47:42;;;;;;;5.00;4.50;;;18.10;1.00;;;;;;5089217;28;20123;-79
2022/07/30 03:50:09;;;;;;;6.68;4.53;;;18.00;1.00;;;;;;5089433;28;20020;-77
2022/07/30 03:52:39;;;;;;;4.90;4.40;;;17.90;1.00;;;;;;5089591;28;20028;-79
2022/07/30 03:55:06;;;;;;;4.82;4.43;;;17.90;1.00;;;;;;5090190;28;20024;-79
2022/07/30 03:57:32;;;;;;;5.50;4.90;;;17.90;1.00;;;;;;5087188;28;20508;-79
2022/07/30 03:59:58;;;;;;;6.68;5.03;;;17.80;1.00;;;;;;5089258;28;20024;-79
2022/07/30 04:02:24;;;;;;;5.50;5.00;;;17.70;1.00;;;;;;5089608;28;20024;-79
2022/07/30 04:04:49;;;;;;;7.13;5.10;;;17.70;1.00;;;;;;5089114;28;20020;-78
2022/07/30 04:07:15;;;;;;;9.48;4.95;;;17.70;1.00;;;;;;5091322;28;20036;-78
2022/07/30 04:09:41;;;;;;;4.85;4.38;;;17.80;1.00;;;;;;5089080;28;20519;-79
2022/07/30 04:12:07;;;;;;;5.30;4.80;;;17.70;1.00;;;;;;5089177;28;20034;-79
2022/07/30 04:14:43;;;;;;;7.20;4.90;;;17.60;1.00;;;;;;5089157;28;20435;-79
2022/07/30 04:17:15;;;;;;;6.00;4.35;;;17.70;1.00;;;;;;5089299;28;20035;-79
2022/07/30 04:19:59;;;;;;;6.00;4.70;;;17.70;1.00;;;;;;5090354;28;20062;-79
2022/07/30 04:22:29;;;;;;;4.90;4.40;;;17.60;1.00;;;;;;5090980;28;20110;-79
2022/07/30 04:24:56;;;;;;;5.38;4.88;;;17.70;1.00;;;;;;5093553;28;20494;-79
2022/07/30 04:27:24;;;;;;;6.03;4.88;;;17.70;1.00;;;;;;5092715;28;20174;-79
2022/07/30 04:29:51;;;;;;;5.53;4.38;;;17.80;1.00;;;;;;5092915;28;20050;-79
2022/07/30 04:32:17;;;;;;;8.50;4.82;;;17.80;1.00;;;;;;5092693;28;20028;-79
2022/07/30 04:34:52;;;;;;;5.53;4.65;;;17.80;1.00;;;;;;5092334;28;20114;-79
2022/07/30 04:37:20;;;;;;;5.22;4.72;;;17.70;1.00;;;;;;5090486;28;20052;-79
2022/07/30 04:39:48;;;;;;;5.32;4.82;;;17.70;1.00;;;;;;5090952;28;20028;-79
2022/07/30 04:42:14;;;;;;;6.70;4.88;;;17.80;1.00;;;;;;5092439;28;20020;-79
2022/07/30 04:44:40;;;;;;;6.15;5.30;;;17.80;1.00;;;;;;5091137;28;20381;-79
2022/07/30 04:47:06;;;;;;;7.88;4.88;;;17.90;1.00;;;;;;5092727;28;20043;-79
2022/07/30 04:49:32;;;;;;;7.13;4.80;;;18.00;1.00;;;;;;5093147;28;20035;-78
2022/07/30 04:51:59;;;;;;;6.57;4.70;;;17.90;1.00;;;;;;5094139;28;20111;-79
2022/07/30 04:54:25;;;;;;;5.47;4.97;;;18.00;1.00;;;;;;5091586;28;20032;-79
2022/07/30 04:56:51;;;;;;;6.55;4.78;;;18.00;1.00;;;;;;5092060;28;20020;-79
2022/07/30 04:59:19;;;;;;;6.45;5.00;;;18.10;1.00;;;;;;5090253;28;20023;-79
2022/07/30 05:01:48;;;;;;;5.15;4.25;;;17.80;1.00;;;;;;5091817;28;20024;-78
2022/07/30 05:04:15;;;;;;;6.13;5.03;;;17.70;1.00;;;;;;5094113;28;20126;-79
2022/07/30 05:06:42;;;;;;;5.65;4.75;;;17.70;1.00;;;;;;5091844;28;20052;-79
2022/07/30 05:09:08;;;;;;;8.23;4.78;;;17.90;1.00;;;;;;5091418;28;20034;-78
2022/07/30 05:11:34;;;;;;;5.60;5.00;;;17.90;1.00;;;;;;5091766;28;20119;-79
2022/07/30 05:13:59;;;;;;;5.65;4.75;;;18.00;1.00;;;;;;5072634;28;20036;-79
2022/07/30 05:16:26;;;;;;;6.70;4.88;;;17.90;1.00;;;;;;5093433;28;20031;-79
2022/07/30 05:18:52;;;;;;;5.68;5.18;;;17.80;1.00;;;;;;5072190;28;20032;-79
2022/07/30 05:21:17;;;;;;;6.05;5.32;;;17.90;1.00;;;;;;5091657;28;20549;-79
2022/07/30 05:23:43;;;;;;;7.63;5.07;;;18.00;1.00;;;;;;5089947;28;20028;-79
2022/07/30 05:26:09;;;;;;;6.72;5.30;;;18.10;1.00;;;;;;5091806;28;20416;-78
2022/07/30 05:28:34;;;;;;;7.15;5.13;;;18.20;1.00;;;;;;5092004;28;20511;-79
2022/07/30 05:31:00;;;;;;;5.55;4.90;;;18.30;1.00;;;;;;5092377;28;20136;-79
2022/07/30 05:33:25;;;;;;;8.60;5.82;;;18.40;1.00;;;;;;5091360;28;20481;-79
2022/07/30 05:35:51;;;;;;;6.55;5.95;;;18.30;1.00;;;;;;5089249;28;20024;-79
2022/07/30 05:38:17;;;;;;;6.57;5.70;;;18.40;1.00;;;;;;5091351;28;20032;-79
2022/07/30 05:40:43;;;;;;;9.18;5.70;;;18.40;1.00;;;;;;5090393;28;20032;-80
2022/07/30 05:43:09;;;;;;;7.90;5.53;;;18.50;1.00;;;;;;5092230;28;20085;-78
2022/07/30 05:45:35;;;;;;;7.03;6.03;;;18.70;1.00;;;;;;5091284;28;20016;-78
2022/07/30 05:48:00;;;;;;;6.95;5.90;;;18.70;1.00;;;;;;5091524;28;20020;-79
2022/07/30 05:50:26;;;;;;;6.40;5.30;;;18.80;1.00;;;;;;5091351;28;20036;-79
2022/07/30 05:52:52;;;;;;;7.95;5.22;;;18.80;1.00;;;;;;5089956;28;20463;-79
2022/07/30 05:55:18;;;;;;;6.35;5.70;;;18.80;1.00;;;;;;5093542;28;20051;-78
2022/07/30 05:57:43;;;;;;;7.45;5.78;;;18.90;1.00;;;;;;5091048;28;20032;-78
2022/07/30 06:00:11;;;;;;;5.93;5.32;;;18.90;1.00;;;;;;5090945;28;20031;-79
2022/07/30 06:02:38;;;;;;;10.30;7.72;;;19.10;1.00;;;;;;5090135;28;20419;-79
2022/07/30 06:05:04;;;;;;;9.77;6.90;;;19.00;1.00;;;;;;5090852;28;20043;-79
2022/07/30 06:07:30;;;;;;;9.70;7.00;;;19.00;1.00;;;;;;5090147;28;20023;-80
2022/07/30 06:09:59;;;;;;;10.13;7.60;;;19.10;1.00;;;;;;5103268;28;20023;-80
2022/07/30 06:12:29;;;;;;;11.75;7.28;;;19.20;1.00;;;;;;5090443;28;20439;-80
2022/07/30 06:14:55;;;;;;;10.50;7.90;;;19.40;1.00;;;;;;5090059;28;20024;-80
2022/07/30 06:17:21;;;;;;;12.43;7.80;;;19.60;1.00;;;;;;5091002;28;20042;-80
2022/07/30 06:19:47;;;;;;;10.93;8.02;;;19.80;1.00;;;;;;5090657;28;20110;-80
2022/07/30 06:22:13;;;;;;;12.57;8.57;;;19.80;1.00;;;;;;5092278;28;20024;-82
2022/07/30 06:24:38;;;;;;;11.52;8.63;;;20.00;1.00;;;;;;5090745;28;20032;-81
2022/07/30 06:27:04;;;;;;;12.15;8.27;;;20.10;1.00;;;;;;5090085;28;20411;-80
2022/07/30 06:29:29;;;;;;;10.07;7.13;;;20.20;1.00;;;;;;5089892;28;20040;-80
2022/07/30 06:31:55;;;;;;;7.47;6.65;;;20.30;1.00;;;;;;5088899;28;20031;-80
2022/07/30 06:34:21;;;;;;;8.32;5.60;;;20.40;1.00;;;;;;5092612;28;20055;-80
2022/07/30 06:36:47;;;;;;;7.68;5.13;;;20.30;1.00;;;;;;5088668;28;20039;-80
2022/07/30 06:39:13;;;;;;;7.18;5.28;;;20.50;1.00;;;;;;5090305;28;20023;-80
2022/07/30 06:41:38;;;;;;;10.50;5.13;;;20.50;1.00;;;;;;5090184;28;20415;-80
2022/07/30 06:44:04;;;;;;;6.68;5.25;;;20.50;1.00;;;;;;5090533;28;20048;-80
2022/07/30 06:46:29;;;;;;;7.57;4.70;;;20.60;1.00;;;;;;5091042;28;20383;-80
2022/07/30 06:48:55;;;;;;;4.97;4.18;;;20.70;1.00;;;;;;5091708;28;20039;-80
2022/07/30 06:51:21;;;;;;;8.02;4.20;;;20.80;1.00;;;;;;5089271;28;20483;-80
2022/07/30 06:53:47;;;;;;;4.95;3.83;;;20.90;1.00;;;;;;5089939;28;20039;-80
2022/07/30 06:56:13;;;;;;;5.88;4.10;;;21.00;1.00;;;;;;5090436;28;20038;-80
2022/07/30 06:58:38;;;;;;;5.50;3.55;;;20.90;1.00;;;;;;5089959;28;20119;-80
2022/07/30 07:01:04;;;;;;;7.30;4.10;;;21.00;1.00;;;;;;5092125;28;20119;-80
2022/07/30 07:03:30;;;;;;;7.95;4.00;;;20.90;1.00;;;;;;5089813;28;20063;-80
2022/07/30 07:05:55;;;;;;;4.93;3.42;;;21.00;1.00;;;;;;5089364;28;20055;-80
2022/07/30 07:08:21;;;;;;;5.95;3.30;;;21.00;1.00;;;;;;5089785;28;20377;-80
2022/07/30 07:10:47;;;;;;;5.95;3.00;;;20.90;1.00;;;;;;5088963;28;20082;-80
2022/07/30 07:13:13;;;;;;;6.72;3.25;;;21.20;1.00;;;;;;5091243;28;20135;-80
2022/07/30 07:15:39;;;;;;;4.32;3.05;;;21.10;1.00;;;;;;5089621;28;20039;-80
2022/07/30 07:18:05;;;;;;;2.85;2.60;;;21.20;1.00;;;;;;5089709;28;20028;-80
2022/07/30 07:20:32;;;;;;;6.07;2.90;;;21.30;1.00;;;;;;5089147;28;20036;-80
2022/07/30 07:22:57;;;;;;;4.78;3.17;;;21.20;1.00;;;;;;5089647;28;20013;-80
2022/07/30 07:25:23;;;;;;;5.97;3.50;;;21.30;1.00;;;;;;5091673;28;20040;-80
2022/07/30 07:27:49;;;;;;;7.03;3.45;;;21.40;1.00;;;;;;5090126;28;20020;-80
2022/07/30 07:30:14;;;;;;;7.13;3.30;;;21.40;1.00;;;;;;5089188;28;20070;-80
2022/07/30 07:32:40;;;;;;;8.30;3.65;;;21.60;1.00;;;;;;5089404;28;20031;-80
2022/07/30 07:35:06;;;;;;;3.85;3.08;;;21.60;1.00;;;;;;5089199;28;20036;-80
2022/07/30 07:37:32;;;;;;;7.30;3.22;;;21.70;1.00;;;;;;5090080;28;20115;-80
2022/07/30 07:39:58;;;;;;;3.58;3.28;;;21.80;1.00;;;;;;5091115;28;20595;-80
2022/07/30 07:42:24;;;;;;;4.28;3.30;;;21.80;1.00;;;;;;5089245;28;20047;-80
2022/07/30 07:44:49;;;;;;;3.78;3.40;;;21.90;1.00;;;;;;5089344;28;20490;-80
2022/07/30 07:47:15;;;;;;;3.58;3.10;;;21.90;1.00;;;;;;5089738;28;20028;-80
2022/07/30 07:49:41;;;;;;;6.72;3.60;;;22.00;1.00;;;;;;5089231;28;20032;-80
2022/07/30 07:52:06;;;;;;;4.30;3.10;;;22.10;1.00;;;;;;5090039;28;20036;-80
2022/07/30 07:54:32;;;;;;;5.25;3.50;;;22.20;1.00;;;;;;5090116;28;20040;-80
2022/07/30 07:56:58;;;;;;;3.80;3.47;;;22.30;1.00;;;;;;5093748;28;20027;-80
2022/07/30 07:59:23;;;;;;;4.65;3.70;;;22.40;1.00;;;;;;5093354;28;20036;-80
2022/07/30 08:01:49;;;;;;;5.03;3.35;;;22.30;1.00;;;;;;5093402;28;20491;-80
2022/07/30 08:04:15;;;;;;;8.98;3.55;;;22.40;1.00;;;;;;5076731;28;20392;-80
2022/07/30 08:06:41;;;;;;;4.07;3.35;;;22.40;1.00;;;;;;5093190;28;20032;-80
2022/07/30 08:09:07;;;;;;;5.43;3.00;;;22.60;1.00;;;;;;5093093;28;20047;-80
2022/07/30 08:11:32;;;;;;;5.68;3.53;;;22.70;1.00;;;;;;5093204;28;20028;-80
2022/07/30 08:13:58;;;;;;;4.55;3.22;;;22.80;1.00;;;;;;5093356;28;20416;-80
2022/07/30 08:16:24;;;;;;;4.50;3.47;;;22.80;1.00;;;;;;5094416;28;20403;-80
2022/07/30 08:18:49;;;;;;;6.93;3.30;;;22.90;1.00;;;;;;5091534;28;20353;-80
2022/07/30 08:21:15;;;;;;;4.90;3.50;;;22.90;1.00;;;;;;5092702;28;20028;-80
2022/07/30 08:23:41;;;;;;;6.88;3.28;;;23.00;1.00;;;;;;5092644;28;20024;-80
2022/07/30 08:26:06;;;;;;;7.18;2.92;;;23.00;1.00;;;;;;5092801;28;20377;-80
2022/07/30 08:28:34;;;;;;;7.20;3.20;;;23.10;1.00;;;;;;5093802;28;20052;-80
2022/07/30 08:30:59;;;;;;;4.95;2.90;;;23.30;1.00;;;;;;5092069;28;20040;-79
2022/07/30 08:33:25;;;;;;;4.28;2.65;;;23.30;1.00;;;;;;5092137;28;20034;-79
2022/07/30 08:35:50;;;;;;;4.45;3.05;;;23.40;1.00;;;;;;5092970;28;20484;-79
2022/07/30 08:38:16;;;;;;;4.32;2.90;;;23.50;1.00;;;;;;5092399;28;20063;-79
2022/07/30 08:40:42;;;;;;;4.72;3.30;;;23.60;1.00;;;;;;5092368;28;20453;-79
2022/07/30 08:43:07;;;;;;;8.65;3.17;;;23.70;1.00;;;;;;5094465;28;20046;-79
2022/07/30 08:45:34;;;;;;;8.70;3.00;;;23.70;1.00;;;;;;5092737;28;20040;-79
2022/07/30 08:48:00;;;;;;;4.32;2.60;;;23.90;1.00;;;;;;5091824;28;20537;-79
2022/07/30 08:50:27;;;;;;;3.63;2.80;;;24.00;1.00;;;;;;5092092;28;20065;-79
2022/07/30 08:52:54;;;;;;;5.63;2.90;;;24.10;1.00;;;;;;5092059;28;20561;-79
2022/07/30 08:55:24;;;;;;;5.72;3.28;;;24.10;1.00;;;;;;5094293;28;20020;-79
2022/07/30 08:57:50;;;;;;;3.20;2.78;;;24.30;1.00;;;;;;5093071;28;20085;-79
2022/07/30 09:00:17;;;;;;;4.80;3.03;;;24.40;1.00;;;;;;5091745;28;20031;-79
2022/07/30 09:02:43;;;;;;;3.90;2.80;;;24.40;1.00;;;;;;5091664;28;20122;-79
2022/07/30 09:05:10;;;;;;;3.50;2.92;;;24.50;1.00;;;;;;5072035;28;20567;-79
2022/07/30 09:07:36;;;;;;;3.20;2.90;;;24.50;1.00;;;;;;5074746;28;20028;-79
2022/07/30 09:10:04;;;;;;;4.07;3.17;;;24.70;1.00;;;;;;5091941;28;20024;-80
2022/07/30 09:12:32;;;;;;;5.20;2.78;;;24.70;1.00;;;;;;5092229;28;20031;-79
2022/07/30 09:15:16;;;;;;;8.82;2.88;;;24.70;1.00;;;;;;5091207;28;20032;-79
2022/07/30 09:17:55;;;;;;;4.95;2.80;;;24.90;1.00;;;;;;5092070;28;20032;-79
2022/07/30 09:20:27;;;;;;;4.50;2.90;;;25.10;1.00;;;;;;5091298;28;20020;-79
2022/07/30 09:22:56;;;;;;;3.90;2.85;;;25.30;1.00;;;;;;5075916;28;20025;-79
2022/07/30 09:25:43;;;;;;;4.18;2.83;;;25.30;1.00;;;;;;5093829;28;20415;-79
2022/07/30 09:28:11;;;;;;;2.97;2.65;;;25.30;1.00;;;;;;5092379;28;20426;-79
2022/07/30 09:30:44;;;;;;;3.17;2.63;;;25.50;1.00;;;;;;5090618;28;20046;-80
2022/07/30 09:33:10;;;;;;;5.15;2.80;;;25.50;1.00;;;;;;5091409;28;20043;-79
2022/07/30 09:35:36;;;;;;;7.30;2.90;;;25.40;1.00;;;;;;5091691;28;20423;-79
2022/07/30 09:38:03;;;;;;;3.25;2.83;;;25.40;1.00;;;;;;5091767;28;20264;-79
2022/07/30 09:40:29;;;;;;;5.68;2.70;;;25.60;1.00;;;;;;5092942;28;20391;-79
2022/07/30 09:43:05;;;;;;;6.75;2.92;;;25.80;1.00;;;;;;5092220;28;20023;-79
2022/07/30 09:45:31;;;;;;;3.45;2.40;;;25.90;1.00;;;;;;5090715;28;20043;-79
2022/07/30 09:47:57;;;;;;;5.55;2.70;;;25.90;1.00;;;;;;5089729;28;20495;-79
2022/07/30 09:50:23;;;;;;;2.55;2.35;;;26.20;1.00;;;;;;5091279;28;20028;-79
2022/07/30 09:52:50;;;;;;;3.28;2.20;;;26.30;1.00;;;;;;5091277;28;20035;-79
2022/07/30 09:55:31;;;;;;;5.40;2.55;;;26.40;1.00;;;;;;5093169;28;20174;-79
2022/07/30 09:57:59;;;;;;;4.93;2.40;;;26.60;1.00;;;;;;5092149;28;20095;-79
2022/07/30 10:00:27;;;;;;;7.50;4.45;;;26.40;1.00;;;;;;5090463;28;20044;-79
2022/07/30 10:02:53;;;;;;;2.58;2.05;;;26.40;1.00;;;;;;5091056;28;20044;-79
2022/07/30 10:05:20;;;;;;;3.40;2.20;;;26.50;1.00;;;;;;5091143;28;20028;-80
2022/07/30 10:07:59;;;;;;;3.35;2.70;;;26.70;1.00;;;;;;5090658;28;20036;-79
2022/07/30 10:10:29;;;;;;;4.22;2.50;;;26.80;1.00;;;;;;5088979;28;20113;-79
2022/07/30 10:12:59;;;;;;;6.05;2.67;;;26.80;1.00;;;;;;5091000;28;20030;-80
2022/07/30 10:15:32;;;;;;;5.43;2.35;;;27.20;1.00;;;;;;5091212;28;20032;-79
2022/07/30 10:17:58;;;;;;;4.78;2.38;;;27.10;1.00;;;;;;5090013;28;20035;-79
2022/07/30 10:20:25;;;;;;;4.63;2.33;;;27.10;1.00;;;;;;5090372;28;20031;-80
2022/07/30 10:22:51;;;;;;;3.05;2.15;;;27.10;1.00;;;;;;5074550;28;20031;-79
2022/07/30 10:25:22;;;;;;;2.40;2.20;;;27.30;1.00;;;;;;5092715;28;20561;-80
2022/07/30 10:27:49;;;;;;;2.80;2.28;;;27.40;1.00;;;;;;5088807;28;20032;-79
2022/07/30 10:30:15;;;;;;;4.05;2.40;;;27.50;1.00;;;;;;5090580;28;20051;-79
2022/07/30 10:32:42;;;;;;;4.22;2.33;;;27.60;1.00;;;;;;5090349;28;20034;-79
2022/07/30 10:35:08;;;;;;;2.58;2.30;;;27.70;1.00;;;;;;5090344;28;20023;-79
2022/07/30 10:37:37;;;;;;;2.92;2.25;;;27.80;1.00;;;;;;5091373;28;20024;-80
2022/07/30 10:40:25;;;;;;;3.22;2.35;;;27.80;1.00;;;;;;5090192;28;20024;-80
2022/07/30 10:43:19;;;;;;;2.97;2.38;;;28.00;1.00;;;;;;5088788;28;20020;-80
2022/07/30 10:46:04;;;;;;;6.18;2.78;;;28.10;1.00;;;;;;5090014;28;20450;-80
2022/07/30 10:48:33;;;;;;;5.10;2.28;;;28.00;1.00;;;;;;5090167;28;20505;-80
2022/07/30 10:50:59;;;;;;;5.80;2.88;;;28.20;1.00;;;;;;5090073;28;20523;-80
2022/07/30 10:53:38;;;;;;;3.40;2.17;;;28.30;1.00;;;;;;5089790;28;20118;-80
2022/07/30 10:56:15;;;;;;;2.53;2.22;;;28.20;1.00;;;;;;5075485;28;20032;-80
2022/07/30 10:59:00;;;;;;;2.50;2.30;;;28.30;1.00;;;;;;5089581;28;20016;-80
2022/07/30 11:01:46;;;;;;;3.45;2.25;;;28.50;1.00;;;;;;5088056;28;20035;-80
2022/07/30 11:04:28;;;;;;;3.28;2.00;;;28.70;1.00;;;;;;5092721;28;20495;-80
2022/07/30 11:07:26;;;;;;;2.65;1.88;;;29.00;1.00;;;;;;5072629;28;20036;-80
2022/07/30 11:09:53;;;;;;;2.67;2.17;;;29.20;1.00;;;;;;5089075;28;20468;-80
2022/07/30 11:12:41;;;;;;;5.03;2.40;;;29.30;1.00;;;;;;5089222;28;20070;-80
2022/07/30 11:15:14;;;;;;;3.95;2.20;;;29.40;1.00;;;;;;5089623;28;20411;-80
2022/07/30 11:18:05;;;;;;;2.05;1.95;;;29.30;1.00;;;;;;5089622;28;20099;-80
2022/07/30 11:20:32;;;;;;;3.35;1.73;;;29.30;1.00;;;;;;5089783;28;20028;-80
2022/07/30 11:23:23;;;;;;;3.97;1.83;;;29.70;1.00;;;;;;5089769;28;20043;-80
2022/07/30 11:25:49;;;;;;;3.70;1.90;;;30.20;1.00;;;;;;5089322;28;20539;-80
2022/07/30 11:28:35;;;;;;;2.75;1.70;;;30.20;1.00;;;;;;5091690;28;20095;-80
2022/07/30 11:31:01;;;;;;;3.63;2.10;;;33.10;1.00;;;;;;5094664;28;20094;-80
2022/07/30 11:33:27;;;;;;;1.85;1.73;;;31.80;1.00;;;;;;5093677;28;20059;-80
2022/07/30 11:36:11;;;;;;;2.05;1.70;;;36.10;1.00;;;;;;5094134;28;20471;-80
2022/07/30 11:38:50;;;;;;;2.95;1.98;;;33.90;1.00;;;;;;5094155;28;20059;-80
2022/07/30 11:41:15;;;;;;;6.75;1.77;;;33.10;1.00;;;;;;5093469;28;20028;-80
2022/07/30 11:43:41;;;;;;;3.60;1.80;;;37.60;1.00;;;;;;5093905;28;20042;-80
2022/07/30 11:46:27;;;;;;;3.63;1.58;;;39.20;1.00;;;;;;5094152;28;20031;-80
2022/07/30 11:49:04;;;;;;;3.72;1.88;;;39.80;1.00;;;;;;5093000;28;20459;-80
2022/07/30 11:51:45;;;;;;;2.42;2.08;;;37.80;1.00;;;;;;5093452;28;20028;-79
2022/07/30 11:54:12;;;;;;;2.75;1.83;;;38.10;1.00;;;;;;5093173;28;20040;-80
2022/07/30 11:56:56;;;;;;;3.38;1.90;;;40.00;1.00;;;;;;5093069;28;20077;-80
2022/07/30 11:59:22;;;;;;;2.33;1.60;;;40.80;1.00;;;;;;5093355;28;20043;-80
2022/07/30 12:01:54;;;;;;;3.47;1.80;;;41.00;1.00;;;;;;5093664;28;20028;-80
2022/07/30 12:04:20;;;;;;;2.78;1.60;;;39.50;1.00;;;;;;5091210;28;20036;-80
2022/07/30 12:06:47;;;;;;;2.30;1.40;;;40.40;1.00;;;;;;5093368;28;20050;-80
2022/07/30 12:09:20;;;;;;;2.42;1.77;;;37.60;1.00;;;;;;5092755;28;20016;-80
2022/07/30 12:11:46;;;;;;;3.17;1.90;;;39.60;1.00;;;;;;5093290;28;20051;-80
2022/07/30 12:14:12;;;;;;;3.33;1.52;;;39.90;1.00;;;;;;5092905;28;20495;-81
2022/07/30 12:16:41;;;;;;;1.95;1.42;;;42.20;1.00;;;;;;5093473;28;20031;-80
2022/07/30 12:19:06;;;;;;;2.80;1.50;;;42.60;1.00;;;;;;5095100;28;20020;-80
2022/07/30 12:21:32;;;;;;;2.55;1.60;;;41.60;1.00;;;;;;5092954;28;20043;-81
2022/07/30 12:24:00;;;;;;;4.25;1.70;;;37.60;1.00;;;;;;5091068;28;20024;-80
2022/07/30 12:26:31;;;;;;;2.20;1.65;;;40.60;1.00;;;;;;5092805;28;20028;-81
2022/07/30 12:29:00;;;;;;;2.60;1.58;;;42.60;1.00;;;;;;5093211;28;20036;-81
2022/07/30 12:31:26;;;;;;;3.03;1.70;;;44.10;1.00;;;;;;5094103;28;20031;-81
2022/07/30 12:33:55;;;;;;;1.77;1.45;;;45.00;1.00;;;;;;5091720;28;20151;-81
2022/07/30 12:36:34;;;;;;;1.88;1.60;;;43.40;1.00;;;;;;5093011;28;20026;-81
2022/07/30 12:39:01;;;;;;;2.92;1.55;;;43.90;1.00;;;;;;5092228;28;20077;-81
2022/07/30 12:41:44;;;;;;;1.77;1.52;;;43.90;1.00;;;;;;5092013;28;20057;-80
2022/07/30 12:44:30;;;;;;;2.25;1.60;;;44.00;1.00;;;;;;5092524;28;20043;-81
2022/07/30 12:46:55;;;;;;;3.75;1.67;;;44.20;1.00;;;;;;5076749;28;20039;-81
2022/07/30 12:49:30;;;;;;;2.33;1.45;;;45.30;1.00;;;;;;5095416;28;20431;-81
2022/07/30 12:51:56;;;;;;;2.67;1.42;;;41.70;1.00;;;;;;5093445;28;20039;-81
2022/07/30 12:54:22;;;;;;;3.70;1.60;;;41.10;1.00;;;;;;5091854;28;20040;-81
2022/07/30 12:57:04;;;;;;;1.92;1.45;;;41.80;1.00;;;;;;5092115;28;20034;-81
2022/07/30 12:59:32;;;;;;;3.08;1.80;;;41.30;1.00;;;;;;5092308;28;20119;-81
2022/07/30 13:01:59;;;;;;;3.45;1.55;;;41.80;1.00;;;;;;5090923;28;20040;-81
2022/07/30 13:04:25;;;;;;;3.08;1.50;;;41.10;1.00;;;;;;5093984;28;20024;-81
2022/07/30 13:07:07;;;;;;;2.67;1.35;;;41.00;1.00;;;;;;5090671;28;20119;-81
2022/07/30 13:09:33;;;;;;;3.88;1.67;;;41.30;1.00;;;;;;5092374;28;20518;-81